Tiempo atmosférico en la estación meteorológica de Barcena de Cicero, Treto, Cantabria (10 m.)

Fecha
DESCASC
Temp. máxima en grados centígrados (hora)
DESCASC
Temp. mínima en grados centígrados (hora)
DESCASC
Temp. media en grados centígrados
DESCASC
Racha de viento máxima en m/sg (hora)
DESCASC
Velocidad máxima media en intervalos de 10 minutos(hora)
DESCASC
Precipitaciones diarias en mm
DESCASC
Precipitaciones de 00:00 a 06:00 en mm
DESCASC
Precipitaciones de 06:00 a 12:00 en mm
DESCASC
Precipitaciones de 12:00 a 18:00 en mm
DESCASC
Precipitaciones de 18:00 a 24:00 en mm
DESCASC
17-08-2017 24.6 (12:50) 14.7 (07:40) 19.7 6.39 (19:20) 4.17 (19:00) 0 0 0 0 0
16-08-2017 23.7 (16:00) 14.3 (07:00) 19 6.11 (15:20) 3.89 (15:30) 0 0 0 0 0
15-08-2017 21.9 (16:50) 17.1 (00:00) 19.5 3.33 (08:40) 2.22 (10:40) 0.2 0 0.2 0 0
14-08-2017 29 (17:10) 14.6 (07:30) 21.8 8.61 (20:10) 4.72 (16:20) 0 0 0 0 0
13-08-2017 22.4 (11:20) 11.9 (00:00) 17.1 10.28 (14:20) 7.22 (17:10) 0 0 0 0 0
12-08-2017 21.7 (15:40) 11 (00:00) 16.4 8.33 (15:10) 5 (14:00) 0 0 0 0 0
11-08-2017 21.6 (16:10) 12.6 (00:00) 17.1 6.39 (14:50) 3.61 (15:00) 0 0 0 0 0
10-08-2017 20.7 (18:00) 14.6 (00:00) 17.7 9.72 (17:50) 5.28 (16:00) 0.4 0.4 0 0 0
09-08-2017 20.5 (16:00) 14.6 (00:00) 17.6 10.83 (15:00) 5.83 (17:50) 3.6 0 3.4 0.2 0
08-08-2017 20.4 (17:20) 14.7 (00:00) 17.5 10.28 (13:10) 5.56 (13:10) 5.4 2.8 2 0.6 0
07-08-2017 22.8 (12:40) 16.6 (00:00) 19.7 8.06 (22:40) 4.17 (22:40) 0.6 0 0 0 0.6
06-08-2017 22.2 (15:40) 16.6 (00:00) 19.4 6.39 (16:10) 4.17 (16:00) 1 1 0 0 0
05-08-2017 22.5 (00:00) 16.7 (00:00) 19.6 6.39 (10:10) 3.33 (10:00) 13.6 1 9.8 1 1.8
04-08-2017 29 (12:40) 16.8 (00:00) 22.9 6.67 (17:00) 3.89 (17:00) 0 0 0 0 0
03-08-2017 25.7 (12:40) 15.3 (00:00) 20.5 6.11 (16:10) 3.61 (16:10) 0 0 0 0 0
02-08-2017 24.5 (13:30) 14.4 (00:00) 19.4 6.11 (15:10) 3.89 (15:10) 0 0 0 0 0
01-08-2017 22.8 (16:30) 17.4 (00:00) 20.1 8.89 (18:10) 6.11 (18:00) 1 0 1 0 0
31-07-2017 20.3 (16:40) 16.2 (00:00) 18.3 6.67 (16:50) 3.89 (17:00) 1.4 0 0.6 0.2 0.6
30-07-2017 20.6 (11:10) 17.9 (00:00) 19.3 4.72 (12:40) 2.5 (13:40) 0.8 0 0.8 0 0
29-07-2017 26.6 (19:30) 15.8 (00:00) 21.2 7.22 (17:20) 4.72 (15:50) 0 0 0 0 0
28-07-2017 23 (17:20) 18.3 (00:00) 20.6 6.39 (16:40) 4.17 (16:00) 0.2 0.2 0 0 0
27-07-2017 26.7 (16:20) 17.1 (00:00) 21.9 7.22 (16:40) 4.17 (17:40) 0 0 0 0 0
26-07-2017 23 (14:40) 13.5 (00:00) 18.3 6.11 (15:40) 3.61 (15:30) 0 0 0 0 0
25-07-2017 22.3 (16:20) 15.7 (00:00) 19 8.89 (14:50) 4.44 (14:50) 0 0 0 0 0
24-07-2017 21.5 (14:10) 17.2 (00:00) 19.4 11.39 (13:20) 5.83 (14:30) 9.6 4.6 3.6 0.4 1
23-07-2017 23.6 (19:40) 15.4 (00:00) 19.5 6.94 (16:50) 4.17 (20:00) 0 0 0 0 0
22-07-2017 23.3 (11:50) 14.3 (00:00) 18.8 7.22 (17:10) 3.89 (13:00) 0 0 0 0 0

Gráficas

Temp. máximas Temp. mínimas Temp. medias Precipitaciones Rachas de viento máximas Velocidades máximas media en intervalos de 10 minutos

Datos horarios

Fecha y hora oficial Temperatura (ºC) Velocidad del viento (km/h) Dirección del viento Racha (km/h) Dirección de racha Precipitación (mm) Presión (hPa) Tendencia (hPa) Humedad (%)
2017-08-20 23:00:00 16.5 0 Calma 10 Nordeste 0 -- -- 86
2017-08-20 22:00:00 18.9 3 Sur 17 Nordeste 0 -- -- 77
2017-08-20 21:00:00 20 10 Nordeste 24 Nordeste 0 -- -- 74
2017-08-20 20:00:00 21 18 Nordeste 30 Este 0 -- -- 70
2017-08-20 19:00:00 21.4 21 Nordeste 35 Nordeste 0 -- -- 70
2017-08-20 18:00:00 21.6 23 Nordeste 34 Nordeste 0 -- -- 68
2017-08-20 17:00:00 21.9 21 Nordeste 35 Nordeste 0 -- -- 69
2017-08-20 16:00:00 21.9 23 Nordeste 37 Nordeste 0 -- -- 67
2017-08-20 15:00:00 21.9 25 Nordeste 35 Nordeste 0 -- -- 69
2017-08-20 14:00:00 22.1 19 Nordeste 34 Nordeste 0 -- -- 68
2017-08-20 13:00:00 22.2 19 Nordeste 29 Nordeste 0 -- -- 65
2017-08-20 12:00:00 21.7 13 Nordeste 24 Nordeste 0 -- -- 65
2017-08-20 11:00:00 21.3 9 Este 23 Nordeste 0 -- -- 69
2017-08-20 10:00:00 18.2 7 Sudeste 17 Sudeste 0 -- -- 84
2017-08-20 09:00:00 14.7 8 Sur 19 Sudeste 0 -- -- 96
2017-08-20 08:00:00 13.2 10 Sur 20 Sudeste 0 -- -- 97
2017-08-20 07:00:00 13.4 8 Sur 18 Sur 0 -- -- 97
2017-08-20 06:00:00 13.5 6 Sur 12 Sur 0 -- -- 97
2017-08-20 05:00:00 13.9 6 Sur 17 Sudeste 0 -- -- 97
2017-08-20 04:00:00 14.4 7 Sur 17 Sudeste 0 -- -- 97
2017-08-20 03:00:00 14.8 6 Sur 12 Sudeste 0 -- -- 96
2017-08-20 02:00:00 15 4 Sur 10 Sudeste 0 -- -- 96
2017-08-20 01:00:00 15.4 7 Sur 10 Sudeste 0 -- -- 94
2017-08-20 00:00:00 16.1 6 Sur 9 Sur 0 -- -- 92
2017-08-19 23:00:00 17 3 Sur 4 Sudeste 0 -- -- 88
2017-08-19 22:00:00 18.4 2 Sur 7 Nordeste 0 -- -- 83
2017-08-19 21:00:00 19.6 3 Sudeste 18 Nordeste 0 -- -- 78
2017-08-19 20:00:00 20.5 13 Nordeste 26 Este 0 -- -- 76
2017-08-19 19:00:00 21.3 18 Nordeste 28 Nordeste 0 -- -- 74
2017-08-19 18:00:00 21.8 19 Nordeste 27 Nordeste 0 -- -- 74
2017-08-19 17:00:00 22 17 Nordeste 29 Nordeste 0 -- -- 74
2017-08-19 16:00:00 22.4 16 Nordeste 28 Nordeste 0 -- -- 75
2017-08-19 15:00:00 22.3 17 Nordeste 30 Nordeste 0 -- -- 72
2017-08-19 14:00:00 22.3 18 Nordeste 30 Nordeste 0 -- -- 73
2017-08-19 13:00:00 22.4 19 Nordeste 28 Nordeste 0 -- -- 73
2017-08-19 12:00:00 21.1 16 Nordeste 27 Nordeste 0 -- -- 78
2017-08-19 11:00:00 20.8 14 Nordeste 20 Nordeste 0 -- -- 81
2017-08-19 10:00:00 20.4 5 Sudeste 12 Sudeste 0 -- -- 89
2017-08-19 09:00:00 19.6 4 Sudeste 8 Sudeste 0 -- -- 96
2017-08-19 08:00:00 18.7 3 Sudeste 5 Sudeste 0 -- -- 96
2017-08-19 07:00:00 18.7 0 Calma 6 Sudeste 0 -- -- 95
2017-08-19 06:00:00 19 0 Calma 6 Sudeste 0 -- -- 94
2017-08-19 05:00:00 19.2 3 Sur 6 Sur 0 -- -- 92
2017-08-19 04:00:00 19.8 2 Sudeste 15 Nordeste 0 -- -- 89
2017-08-19 03:00:00 20 5 Nordeste 12 Nordeste 0 -- -- 89
2017-08-19 02:00:00 19.5 2 Noroeste 5 Oeste 0.4 -- -- 95
2017-08-19 01:00:00 19.6 2 Oeste 7 Noroeste 0 -- -- 94
2017-08-19 00:00:00 20.1 4 Noroeste 8 Noroeste 0 -- -- 90
2017-08-18 23:00:00 20.3 2 Sudoeste 5 Oeste 0 -- -- 89
2017-08-18 22:00:00 20.9 2 Oeste 6 Noroeste 0 -- -- 86
2017-08-18 21:00:00 21.3 4 Norte 12 Nordeste 0 -- -- 83
2017-08-18 20:00:00 21.9 6 Nordeste 15 Nordeste 0 -- -- 81
2017-08-18 19:00:00 22.5 7 Nordeste 17 Norte 0 -- -- 78
2017-08-18 18:00:00 23.9 8 Noroeste 20 Noroeste 0 -- -- 74
2017-08-18 17:00:00 23.7 12 Noroeste 23 Noroeste 0 -- -- 77
2017-08-18 16:00:00 23.4 11 Norte 19 Norte 0 -- -- 80
2017-08-18 15:00:00 21.8 9 Noroeste 19 Norte 0.4 -- -- 90
2017-08-18 14:00:00 21.9 7 Noroeste 19 Oeste 0 -- -- 88
2017-08-18 13:00:00 21.3 10 Oeste 20 Oeste 0.2 -- -- 91
2017-08-18 12:00:00 22.1 6 Oeste 16 Noroeste 0 -- -- 87
2017-08-18 11:00:00 22.3 6 Norte 12 Noroeste 0 -- -- 85
2017-08-18 10:00:00 21.4 3 Sudoeste 16 Sur 0 -- -- 87
2017-08-18 09:00:00 19.8 5 Sur 12 Sur 0 -- -- 94
2017-08-18 08:00:00 18.9 4 Sur 11 Sur 0 -- -- 95
2017-08-18 07:00:00 18.6 4 Sur 8 Sur 0 -- -- 95
2017-08-18 06:00:00 18.5 4 Sur 8 Sur 0 -- -- 95
2017-08-18 05:00:00 18.8 4 Sur 9 Sur 0 -- -- 94
2017-08-18 04:00:00 19.1 5 Sur 8 Sur 0 -- -- 94
2017-08-18 03:00:00 18.8 6 Sur 11 Sur 0 -- -- 95
2017-08-18 02:00:00 18.4 5 Sur 10 Sur 0 -- -- 95
2017-08-18 01:00:00 18.1 3 Sudeste 5 Sudeste 0 -- -- 94
2017-08-18 00:00:00 18.7 0 Calma 3 Noroeste 0 -- -- 91
2017-08-17 23:00:00 20.2 2 Oeste 8 Nordeste 0 -- -- 87
2017-08-17 22:00:00 21.5 7 Nordeste 17 Nordeste 0 -- -- 84
2017-08-17 21:00:00 22 7 Nordeste 21 Nordeste 0 -- -- 82
2017-08-17 20:00:00 22.5 14 Nordeste 23 Nordeste 0 -- -- 79
2017-08-17 19:00:00 22.8 15 Nordeste 22 Nordeste 0 -- -- 78
2017-08-17 18:00:00 23.8 12 Nordeste 18 Nordeste 0 -- -- 74
2017-08-17 17:00:00 23.9 9 Nordeste 18 Nordeste 0 -- -- 75
2017-08-17 16:00:00 24.4 9 Nordeste 21 Este 0 -- -- 75
2017-08-17 15:00:00 24.1 12 Nordeste 21 Nordeste 0 -- -- 72
2017-08-17 14:00:00 24.5 9 Nordeste 18 Nordeste 0 -- -- 70
2017-08-17 13:00:00 24.3 12 Nordeste 19 Nordeste 0 -- -- 71
2017-08-17 12:00:00 24 7 Nordeste 12 Norte 0 -- -- 69
2017-08-17 11:00:00 23.1 5 Este 11 Sudeste 0 -- -- 75
2017-08-17 10:00:00 20.1 7 Sudeste 12 Sur 0 -- -- 84
2017-08-17 09:00:00 16.9 5 Sur 12 Sudeste 0 -- -- 95
2017-08-17 08:00:00 14.9 6 Sur 10 Sur 0 -- -- 97
2017-08-17 07:00:00 15 5 Sur 13 Sur 0 -- -- 96
2017-08-17 06:00:00 15.5 8 Sur 12 Sur 0 -- -- 95
2017-08-17 05:00:00 15.8 5 Sur 15 Sur 0 -- -- 95
2017-08-17 04:00:00 16.1 8 Sur 12 Sudeste 0 -- -- 96
2017-08-17 03:00:00 16.2 6 Sur 10 Sur 0 -- -- 95
2017-08-17 02:00:00 16.9 6 Sur 15 Sur 0 -- -- 95
2017-08-17 01:00:00 17.3 6 Sur 14 Sur 0 -- -- 95
2017-08-17 00:00:00 17.7 10 Sur 13 Sur 0 -- -- 94
2017-08-16 23:00:00 18.1 4 Sur 8 Sudeste 0 -- -- 91
2017-08-16 22:00:00 19.8 0 Calma 8 Nordeste 0 -- -- 87
2017-08-16 21:00:00 21.4 5 Nordeste 13 Nordeste 0 -- -- 82
2017-08-16 20:00:00 22.3 8 Nordeste 15 Este 0 -- -- 77
2017-08-16 19:00:00 22.9 9 Nordeste 20 Nordeste 0 -- -- 76
2017-08-16 18:00:00 23.2 11 Nordeste 18 Nordeste 0 -- -- 72
2017-08-16 17:00:00 23.5 12 Nordeste 21 Nordeste 0 -- -- 72
2017-08-16 16:00:00 23.7 11 Nordeste 22 Nordeste 0 -- -- 75
2017-08-16 15:00:00 23.5 11 Nordeste 19 Nordeste 0 -- -- 76
2017-08-16 14:00:00 23.1 13 Nordeste 20 Nordeste 0 -- -- 77
2017-08-16 13:00:00 23.3 11 Nordeste 16 Nordeste 0 -- -- 74
2017-08-16 12:00:00 22.8 8 Nordeste 13 Nordeste 0 -- -- 76
2017-08-16 11:00:00 21.9 4 Este 8 Nordeste 0 -- -- 78
2017-08-16 10:00:00 19.1 5 Sudeste 12 Sudeste 0 -- -- 91
2017-08-16 09:00:00 16.3 6 Sur 10 Sur 0 -- -- 99
2017-08-16 08:00:00 14.4 4 Sudeste 8 Sur 0 -- -- 98
2017-08-16 07:00:00 14.3 5 Sur 9 Sur 0 -- -- 98
2017-08-16 06:00:00 15 4 Sudeste 6 Sur 0 -- -- 97
2017-08-16 05:00:00 16 0 Calma 9 Sudeste 0 -- -- 96
2017-08-16 04:00:00 16.3 3 Sur 11 Sur 0 -- -- 97
2017-08-16 03:00:00 16.2 6 Sur 11 Sur 0 -- -- 98
2017-08-16 02:00:00 16.4 5 Sudeste 12 Sur 0 -- -- 97
2017-08-16 01:00:00 16.9 3 Sur 6 Sur 0 -- -- 96
2017-08-16 00:00:00 17.1 0 Calma 6 Sur 0 -- -- 94
2017-08-15 23:00:00 17.8 0 Calma 0 Calma 0 -- -- 92
2017-08-15 22:00:00 19.5 0 Calma 6 Nordeste 0 -- -- 87
2017-08-15 21:00:00 20.7 3 Este 10 Este 0 -- -- 85
2017-08-15 20:00:00 21 6 Nordeste 10 Este 0 -- -- 82
2017-08-15 19:00:00 21.3 6 Nordeste 10 Nordeste 0 -- -- 80
2017-08-15 18:00:00 21.6 5 Nordeste 12 Nordeste 0 -- -- 76
2017-08-15 17:00:00 21.9 6 Nordeste 11 Nordeste 0 -- -- 77
2017-08-15 16:00:00 21.7 3 Sudoeste 8 Sur 0 -- -- 81
2017-08-15 15:00:00 21.5 2 Sudeste 5 Nordeste 0 -- -- 83
2017-08-15 14:00:00 21 0 Calma 6 Oeste 0 -- -- 85
2017-08-15 13:00:00 20.6 2 Nordeste 6 Sur 0 -- -- 87
2017-08-15 12:00:00 20.3 5 Sur 9 Sur 0 -- -- 89
2017-08-15 11:00:00 19.5 5 Sur 12 Sudoeste 0 -- -- 94
2017-08-15 10:00:00 19 5 Sur 9 Sur 0.2 -- -- 95
2017-08-15 09:00:00 19.4 6 Oeste 12 Noroeste 0 -- -- 91
2017-08-15 08:00:00 20.1 0 Calma 0 Calma 0 -- -- 92
2017-08-15 07:00:00 20.4 0 Calma 0 Calma 0 -- -- 91
2017-08-15 06:00:00 20.5 0 Calma 4 Sudoeste 0 -- -- 90
2017-08-15 05:00:00 20.3 3 Sudoeste 6 Sur 0 -- -- 90
2017-08-15 04:00:00 20.6 0 Calma 8 Oeste 0 -- -- 87
2017-08-15 03:00:00 20.5 2 Sudoeste 10 Oeste 0 -- -- 86
2017-08-15 02:00:00 20.5 2 Sudoeste 8 Oeste 0 -- -- 87
2017-08-15 01:00:00 20.8 2 Sudoeste 8 Sudoeste 0 -- -- 85
2017-08-15 00:00:00 21.7 8 Oeste 22 Oeste 0 -- -- 82
2017-08-14 23:00:00 21.8 6 Oeste 14 Noroeste 0 -- -- 81
2017-08-14 22:00:00 22.1 10 Noroeste 19 Noroeste 0 -- -- 82
2017-08-14 21:00:00 23.5 5 Noroeste 31 Oeste 0 -- -- 74
2017-08-14 20:00:00 25.2 16 Oeste 28 Oeste 0 -- -- 66
2017-08-14 19:00:00 27.6 9 Noroeste 23 Noroeste 0 -- -- 60
2017-08-14 18:00:00 28.5 10 Noroeste 20 Noroeste 0 -- -- 61
2017-08-14 17:00:00 28.9 11 Noroeste 28 Oeste 0 -- -- 66
2017-08-14 16:00:00 28 15 Noroeste 26 Noroeste 0 -- -- 65
2017-08-14 15:00:00 28 13 Noroeste 24 Noroeste 0 -- -- 62
2017-08-14 14:00:00 28.8 10 Nordeste 18 Norte 0 -- -- 64
2017-08-14 13:00:00 28.3 5 Nordeste 11 Norte 0 -- -- 61
2017-08-14 12:00:00 25.7 4 Este 6 Nordeste 0 -- -- 70
2017-08-14 11:00:00 22.9 3 Sur 5 Sur 0 -- -- 77
2017-08-14 10:00:00 20.2 3 Sudeste 7 Sur 0 -- -- 89
2017-08-14 09:00:00 17.2 4 Sur 7 Sudeste 0 -- -- 98
2017-08-14 08:00:00 15.2 3 Sur 10 Sur 0 -- -- 98
2017-08-14 07:00:00 15 6 Sur 12 Sudeste 0 -- -- 97
2017-08-14 06:00:00 15.6 5 Sur 12 Sur 0 -- -- 97
2017-08-14 05:00:00 16.1 8 Sur 15 Sur 0 -- -- 97
2017-08-14 04:00:00 16.3 4 Sur 10 Sudeste 0 -- -- 96
2017-08-14 03:00:00 16.2 2 Sur 8 Sur 0 -- -- 96
2017-08-14 02:00:00 16.6 3 Sur 8 Sur 0 -- -- 95
2017-08-14 01:00:00 17 5 Sur 8 Sur 0 -- -- 94
2017-08-14 00:00:00 17.6 5 Sur 10 Sudeste 0 -- -- 93
2017-08-13 23:00:00 18.2 5 Sur 8 Sudoeste 0 -- -- 90
2017-08-13 22:00:00 19.4 0 Calma 16 Este 0 -- -- 86
2017-08-13 21:00:00 20.5 12 Nordeste 23 Nordeste 0 -- -- 81
2017-08-13 20:00:00 21 18 Nordeste 29 Nordeste 0 -- -- 78
2017-08-13 19:00:00 21.4 19 Nordeste 31 Nordeste 0 -- -- 76
2017-08-13 18:00:00 21.6 21 Nordeste 36 Nordeste 0 -- -- 75
2017-08-13 17:00:00 21.6 24 Nordeste 35 Nordeste 0 -- -- 78
2017-08-13 16:00:00 22 22 Nordeste 36 Nordeste 0 -- -- 78
2017-08-13 15:00:00 21.9 24 Nordeste 37 Nordeste 0 -- -- 78
2017-08-13 14:00:00 21.9 23 Nordeste 37 Nordeste 0 -- -- 76
2017-08-13 13:00:00 21.6 23 Nordeste 33 Nordeste 0 -- -- 77
2017-08-13 12:00:00 21.7 18 Nordeste 27 Nordeste 0 -- -- 75
2017-08-13 11:00:00 21.1 6 Nordeste 17 Nordeste 0 -- -- 75
2017-08-13 10:00:00 17.4 5 Sur 15 Sudeste 0 -- -- 83
2017-08-13 09:00:00 14.2 6 Sur 18 Sur 0 -- -- 95
2017-08-13 08:00:00 12.2 7 Sur 16 Sudeste 0 -- -- 97
2017-08-13 07:00:00 12.1 8 Sur 13 Sur 0 -- -- 97
2017-08-13 06:00:00 12.3 7 Sur 13 Sudeste 0 -- -- 97
2017-08-13 05:00:00 12.8 8 Sur 15 Sudeste 0 -- -- 96
2017-08-13 04:00:00 13 6 Sur 18 Sur 0 -- -- 96
2017-08-13 03:00:00 13.3 5 Sur 15 Sur 0 -- -- 96
2017-08-13 02:00:00 13.6 7 Sur 12 Sur 0 -- -- 96
2017-08-13 01:00:00 14.1 4 Sur 11 Sur 0 -- -- 95
2017-08-13 00:00:00 14.8 6 Sur 10 Sudeste 0 -- -- 93
2017-08-12 23:00:00 15.8 0 Calma 4 Sur 0 -- -- 88
2017-08-12 22:00:00 18 0 Calma 12 Nordeste 0 -- -- 81
2017-08-12 21:00:00 19.7 8 Nordeste 15 Nordeste 0 -- -- 77
2017-08-12 20:00:00 20.7 9 Nordeste 17 Nordeste 0 -- -- 72
2017-08-12 19:00:00 21.2 9 Nordeste 20 Este 0 -- -- 71
2017-08-12 18:00:00 21.2 13 Nordeste 26 Nordeste 0 -- -- 68
2017-08-12 17:00:00 21.3 17 Nordeste 27 Nordeste 0 -- -- 70
2017-08-12 16:00:00 21.4 17 Nordeste 30 Este 0 -- -- 70
2017-08-12 15:00:00 21.4 17 Nordeste 27 Nordeste 0 -- -- 70
2017-08-12 14:00:00 21.1 18 Nordeste 28 Nordeste 0 -- -- 69
2017-08-12 13:00:00 21.3 15 Nordeste 24 Nordeste 0 -- -- 66
2017-08-12 12:00:00 20.6 8 Nordeste 16 Nordeste 0 -- -- 69
2017-08-12 11:00:00 19.1 4 Sudeste 13 Sudeste 0 -- -- 75
2017-08-12 10:00:00 15.9 9 Sudeste 17 Sudeste 0 -- -- 84
2017-08-12 09:00:00 13.2 7 Sudeste 18 Sudeste 0 -- -- 95
2017-08-12 08:00:00 11.1 6 Sur 14 Sur 0 -- -- 97
2017-08-12 07:00:00 11.3 9 Sur 19 Sudeste 0 -- -- 96
2017-08-12 06:00:00 11.5 5 Sur 16 Sur 0 -- -- 96
2017-08-12 05:00:00 11.5 6 Sur 16 Sur 0 -- -- 96
2017-08-12 04:00:00 11.9 6 Sur 11 Sur 0 -- -- 97
2017-08-12 03:00:00 12.8 6 Sur 16 Sur 0 -- -- 94
2017-08-12 02:00:00 12.7 5 Sur 10 Sur 0 -- -- 95
2017-08-12 01:00:00 13.4 7 Sur 13 Sur 0 -- -- 92
2017-08-12 00:00:00 14 5 Sur 10 Sur 0 -- -- 92
2017-08-11 23:00:00 14.8 6 Sur 9 Sur 0 -- -- 88
2017-08-11 22:00:00 16.8 2 Oeste 11 Nordeste 0 -- -- 80
2017-08-11 21:00:00 19.1 6 Nordeste 14 Nordeste 0 -- -- 71
2017-08-11 20:00:00 20 7 Nordeste 15 Nordeste 0 -- -- 66
2017-08-11 19:00:00 20.3 9 Nordeste 18 Nordeste 0 -- -- 66
2017-08-11 18:00:00 20.9 9 Nordeste 18 Nordeste 0 -- -- 64
2017-08-11 17:00:00 21.4 9 Norte 22 Nordeste 0 -- -- 63
2017-08-11 16:00:00 21.4 8 Nordeste 22 Nordeste 0 -- -- 63
2017-08-11 15:00:00 21.2 13 Nordeste 23 Nordeste 0 -- -- 66
2017-08-11 14:00:00 20.8 10 Nordeste 19 Nordeste 0 -- -- 64
2017-08-11 13:00:00 20.7 11 Nordeste 23 Nordeste 0 -- -- 64
2017-08-11 12:00:00 19.2 5 Oeste 17 Noroeste 0 -- -- 74
2017-08-11 11:00:00 19.8 6 Este 11 Sudeste 0 -- -- 74
2017-08-11 10:00:00 16.6 5 Sur 14 Sudeste 0 -- -- 90
2017-08-11 09:00:00 14.3 6 Sudeste 13 Sudeste 0 -- -- 98
2017-08-11 08:00:00 12.9 6 Sur 10 Sur 0 -- -- 97
2017-08-11 07:00:00 12.6 5 Sur 10 Sudeste 0 -- -- 97
2017-08-11 06:00:00 13.3 4 Sur 10 Sudeste 0 -- -- 95
2017-08-11 05:00:00 14 5 Sur 11 Sur 0 -- -- 94
2017-08-11 04:00:00 13.9 6 Sur 11 Sudeste 0 -- -- 94
2017-08-11 03:00:00 14.3 3 Sudeste 9 Sudeste 0 -- -- 92
2017-08-11 02:00:00 14.6 5 Sudeste 9 Sudeste 0 -- -- 91
2017-08-11 01:00:00 14.9 7 Sudeste 11 Sudeste 0 -- -- 87
2017-08-11 00:00:00 16.1 4 Sudoeste 12 Sudoeste 0 -- -- 81
2017-08-10 23:00:00 16.2 6 Sudoeste 11 Sudoeste 0 -- -- 80
2017-08-10 22:00:00 16.6 4 Sudoeste 18 Oeste 0 -- -- 78
2017-08-10 21:00:00 18.4 6 Noroeste 25 Noroeste 0 -- -- 73
2017-08-10 20:00:00 19.1 10 Noroeste 30 Norte 0 -- -- 72
2017-08-10 19:00:00 19.8 15 Noroeste 32 Oeste 0 -- -- 66
2017-08-10 18:00:00 20.7 14 Noroeste 35 Noroeste 0 -- -- 65
2017-08-10 17:00:00 20.1 17 Noroeste 34 Noroeste 0 -- -- 67
2017-08-10 16:00:00 19.5 19 Noroeste 33 Noroeste 0 -- -- 70
2017-08-10 15:00:00 19.5 10 Oeste 28 Oeste 0 -- -- 77
2017-08-10 14:00:00 20.2 13 Noroeste 34 Noroeste 0 -- -- 71
2017-08-10 13:00:00 19.4 11 Noroeste 22 Noroeste 0 -- -- 73
2017-08-10 12:00:00 18.7 8 Oeste 19 Oeste 0 -- -- 78
2017-08-10 11:00:00 17.8 11 Oeste 21 Oeste 0 -- -- 81
2017-08-10 10:00:00 16.8 8 Oeste 23 Noroeste 0 -- -- 83
2017-08-10 09:00:00 15.6 6 Oeste 15 Oeste 0 -- -- 86
2017-08-10 08:00:00 15 7 Sudoeste 22 Sudoeste 0 -- -- 88
2017-08-10 07:00:00 14.6 8 Sudoeste 15 Sudoeste 0 -- -- 88
2017-08-10 06:00:00 15.1 6 Oeste 21 Oeste 0 -- -- 89
2017-08-10 05:00:00 15.1 6 Oeste 19 Noroeste 0.2 -- -- 89
2017-08-10 04:00:00 14.9 8 Sudoeste 24 Oeste 0 -- -- 87
2017-08-10 03:00:00 15.3 11 Oeste 24 Sudoeste 0 -- -- 86
2017-08-10 02:00:00 15.1 10 Sudoeste 22 Noroeste 0.2 -- -- 88
2017-08-10 01:00:00 15.8 7 Oeste 15 Sudoeste 0 -- -- 80
2017-08-10 00:00:00 16 4 Sudoeste 13 Sudoeste 0 -- -- 79
2017-08-09 23:00:00 16.1 7 Sudoeste 13 Sudoeste 0 -- -- 75
2017-08-09 22:00:00 16.6 5 Oeste 18 Noroeste 0 -- -- 73
2017-08-09 21:00:00 17.6 6 Noroeste 23 Noroeste 0 -- -- 70
2017-08-09 20:00:00 18.7 12 Noroeste 35 Noroeste 0 -- -- 65
2017-08-09 19:00:00 19.4 13 Noroeste 36 Noroeste 0 -- -- 63
2017-08-09 18:00:00 19.9 15 Noroeste 35 Noroeste 0 -- -- 65
2017-08-09 17:00:00 20.1 18 Noroeste 36 Noroeste 0 -- -- 60
2017-08-09 16:00:00 20.5 14 Oeste 32 Oeste 0 -- -- 66
2017-08-09 15:00:00 18.8 21 Oeste 39 Oeste 0 -- -- 67
2017-08-09 14:00:00 18.9 9 Oeste 30 Oeste 0 -- -- 78
2017-08-09 13:00:00 17.6 14 Oeste 37 Oeste 0.2 -- -- 79
2017-08-09 12:00:00 18.3 10 Oeste 21 Oeste 0 -- -- 82
2017-08-09 11:00:00 15.2 9 Sudoeste 24 Oeste 0.8 -- -- 92
2017-08-09 10:00:00 15 9 Oeste 24 Sudoeste 0.2 -- -- 91
2017-08-09 09:00:00 14.8 10 Sudoeste 24 Sudoeste 0 -- -- 93
2017-08-09 08:00:00 14.7 13 Oeste 29 Oeste 2 -- -- 94
2017-08-09 07:00:00 15.8 8 Oeste 17 Oeste 0.4 -- -- 86
2017-08-09 06:00:00 16.1 8 Noroeste 21 Noroeste 0 -- -- 85
2017-08-09 05:00:00 15.9 6 Sur 15 Sur 0 -- -- 85
2017-08-09 04:00:00 16.4 8 Sudoeste 22 Sudoeste 0 -- -- 81
2017-08-09 03:00:00 16.8 9 Sudoeste 24 Oeste 0 -- -- 77
2017-08-09 02:00:00 16.8 8 Sudoeste 18 Sudoeste 0 -- -- 79
2017-08-09 01:00:00 16.8 0 Calma 7 Sur 0 -- -- 88
2017-08-09 00:00:00 16.9 3 Sudoeste 8 Sur 0 -- -- 85
2017-08-08 23:00:00 17.3 5 Sur 9 Sur 0 -- -- 84
2017-08-08 22:00:00 17.6 4 Sur 8 Sur 0 -- -- 82
2017-08-08 21:00:00 18.2 4 Sudoeste 9 Sudoeste 0 -- -- 80
2017-08-08 20:00:00 19 5 Oeste 12 Oeste 0 -- -- 74
2017-08-08 19:00:00 19.8 6 Oeste 19 Noroeste 0 -- -- 71
2017-08-08 18:00:00 19.8 11 Noroeste 25 Oeste 0 -- -- 66
2017-08-08 17:00:00 19.6 11 Noroeste 26 Noroeste 0 -- -- 77
2017-08-08 16:00:00 17.9 15 Noroeste 31 Noroeste 0.4 -- -- 83
2017-08-08 15:00:00 19.4 8 Oeste 19 Sudoeste 0 -- -- 81
2017-08-08 14:00:00 17.2 7 Oeste 37 Noroeste 0.2 -- -- 90
2017-08-08 13:00:00 18.6 16 Noroeste 30 Oeste 0 -- -- 79
2017-08-08 12:00:00 18.1 10 Oeste 26 Oeste 0 -- -- 86
2017-08-08 11:00:00 17.8 8 Oeste 15 Oeste 0 -- -- 87
2017-08-08 10:00:00 16.1 5 Sudoeste 19 Oeste 0 -- -- 92
2017-08-08 09:00:00 15.5 3 Este 12 Sur 0.2 -- -- 95
2017-08-08 08:00:00 15.2 6 Oeste 16 Oeste 1.8 -- -- 93
2017-08-08 07:00:00 14.7 3 Sudoeste 10 Sudoeste 0 -- -- 91
2017-08-08 06:00:00 15.6 5 Noroeste 11 Sudoeste 0 -- -- 89
2017-08-08 05:00:00 15.4 5 Sudoeste 19 Oeste 0 -- -- 91
2017-08-08 04:00:00 16.1 8 Oeste 23 Oeste 0 -- -- 92
2017-08-08 03:00:00 16.3 8 Oeste 19 Sudoeste 0 -- -- 92
2017-08-08 02:00:00 16.5 7 Oeste 17 Noroeste 1 -- -- 95
2017-08-08 01:00:00 16.6 6 Oeste 19 Oeste 1.8 -- -- 95
2017-08-08 00:00:00 17.2 6 Oeste 24 Oeste 0 -- -- 93
2017-08-07 23:00:00 17.6 11 Noroeste 29 Sudoeste 0 -- -- 89
2017-08-07 22:00:00 18.4 11 Oeste 22 Oeste 0.2 -- -- 93
2017-08-07 21:00:00 18.3 13 Oeste 25 Oeste 0.4 -- -- 94
2017-08-07 20:00:00 18.8 10 Oeste 26 Oeste 0 -- -- 92
2017-08-07 19:00:00 19.3 7 Oeste 21 Oeste 0 -- -- 92
2017-08-07 18:00:00 19.6 10 Oeste 24 Oeste 0 -- -- 90
2017-08-07 17:00:00 20.3 11 Noroeste 24 Oeste 0 -- -- 87
2017-08-07 16:00:00 21.4 9 Oeste 21 Oeste 0 -- -- 84
2017-08-07 15:00:00 21.4 8 Noroeste 13 Noroeste 0 -- -- 84
2017-08-07 14:00:00 21.5 7 Noroeste 15 Noroeste 0 -- -- 82
2017-08-07 13:00:00 22.8 7 Nordeste 13 Nordeste 0 -- -- 77
2017-08-07 12:00:00 22 4 Este 13 Este 0 -- -- 79
2017-08-07 11:00:00 20.5 3 Sudeste 5 Sudeste 0 -- -- 84
2017-08-07 10:00:00 18.9 0 Calma 5 Noroeste 0 -- -- 89
2017-08-07 09:00:00 18.1 3 Sur 12 Sur 0 -- -- 92
2017-08-07 08:00:00 17.3 4 Sur 8 Sur 0 -- -- 94
2017-08-07 07:00:00 16.7 4 Sur 9 Sur 0 -- -- 94
2017-08-07 06:00:00 16.9 3 Sudoeste 8 Sur 0 -- -- 93
2017-08-07 05:00:00 16.8 5 Sur 9 Sur 0 -- -- 94
2017-08-07 04:00:00 17.6 4 Sur 9 Sudeste 0 -- -- 90
2017-08-07 03:00:00 17.9 3 Sur 8 Sur 0 -- -- 92
2017-08-07 02:00:00 18.3 5 Sur 11 Sur 0 -- -- 88
2017-08-07 01:00:00 18.3 4 Sur 9 Sudeste 0 -- -- 89
2017-08-07 00:00:00 18.6 4 Sudeste 10 Sudeste 0 -- -- 89
2017-08-06 23:00:00 18.8 4 Sudeste 8 Sudeste 0 -- -- 88
2017-08-06 22:00:00 19 4 Sur 10 Sudoeste 0 -- -- 83
2017-08-06 21:00:00 19.6 3 Sur 6 Este 0 -- -- 81
2017-08-06 20:00:00 19.8 3 Oeste 11 Norte 0 -- -- 80
2017-08-06 19:00:00 20.5 7 Nordeste 19 Nordeste 0 -- -- 74
2017-08-06 18:00:00 21.3 9 Nordeste 21 Nordeste 0 -- -- 71
2017-08-06 17:00:00 21.6 10 Nordeste 23 Nordeste 0 -- -- 70
2017-08-06 16:00:00 21.9 15 Nordeste 23 Nordeste 0 -- -- 67
2017-08-06 15:00:00 22 10 Nordeste 20 Norte 0 -- -- 64
2017-08-06 14:00:00 21.7 12 Nordeste 20 Nordeste 0 -- -- 60
2017-08-06 13:00:00 21.8 9 Nordeste 19 Este 0 -- -- 64
2017-08-06 12:00:00 21.5 9 Nordeste 16 Nordeste 0 -- -- 66
2017-08-06 11:00:00 20.4 3 Este 9 Sudeste 0 -- -- 73
2017-08-06 10:00:00 18.9 6 Sudeste 10 Sudeste 0 -- -- 93
2017-08-06 09:00:00 17.5 5 Sudeste 10 Sudeste 0 -- -- 98
2017-08-06 08:00:00 16.8 3 Sudeste 5 Sur 0 -- -- 97
2017-08-06 07:00:00 16.6 3 Sur 6 Sudeste 0 -- -- 97
2017-08-06 06:00:00 16.8 2 Sur 6 Sudoeste 0 -- -- 98
2017-08-06 05:00:00 16.9 4 Sur 6 Sur 0 -- -- 99
2017-08-06 04:00:00 16.9 0 Calma 6 Sur 0 -- -- 99
2017-08-06 03:00:00 16.9 3 Sur 7 Noroeste 0 -- -- 99
2017-08-06 02:00:00 16.9 3 Noroeste 9 Sudoeste 0 -- -- 99
2017-08-06 01:00:00 16.9 3 Sur 6 Sudoeste 1 -- -- 99
2017-08-06 00:00:00 16.8 3 Sudoeste 8 Sur 1.4 -- -- 98
2017-08-05 23:00:00 16.8 5 Sudeste 8 Sudeste 0.4 -- -- 97
2017-08-05 22:00:00 16.9 3 Sudoeste 11 Sur 0 -- -- 95
2017-08-05 21:00:00 17 8 Sudoeste 15 Sur 0 -- -- 94
2017-08-05 20:00:00 17.7 4 Oeste 10 Noroeste 0 -- -- 92
2017-08-05 19:00:00 18.5 7 Nordeste 13 Nordeste 0 -- -- 86
2017-08-05 18:00:00 18.7 4 Sur 12 Sudeste 0 -- -- 89
2017-08-05 17:00:00 19.1 5 Sur 8 Sur 0 -- -- 88
2017-08-05 16:00:00 18.8 4 Este 9 Noroeste 0 -- -- 89
2017-08-05 15:00:00 17.8 5 Noroeste 12 Nordeste 0 -- -- 97
2017-08-05 14:00:00 17.6 6 Norte 13 Norte 0.4 -- -- 98
2017-08-05 13:00:00 17.5 7 Norte 15 Norte 0.6 -- -- 98
2017-08-05 12:00:00 17.8 8 Norte 18 Norte 1 -- -- 99
2017-08-05 11:00:00 18.1 10 Noroeste 23 Noroeste 2 -- -- 98
2017-08-05 10:00:00 18.6 12 Noroeste 22 Noroeste 1.4 -- -- 99
2017-08-05 09:00:00 19.2 8 Noroeste 17 Noroeste 1.8 -- -- 98
2017-08-05 08:00:00 19.6 8 Norte 16 Noroeste 2.6 -- -- 98
2017-08-05 07:00:00 20.1 6 Noroeste 14 Norte 1 -- -- 97
2017-08-05 06:00:00 20.7 6 Norte 18 Norte 1 -- -- 95
2017-08-05 05:00:00 21.9 7 Norte 16 Norte 0 -- -- 92
2017-08-05 04:00:00 22 6 Noroeste 12 Noroeste 0 -- -- 94
2017-08-05 03:00:00 21.5 3 Noroeste 5 Noroeste 0 -- -- 94
2017-08-05 02:00:00 21.5 3 Noroeste 5 Noroeste 0 -- -- 93
2017-08-05 01:00:00 22.3 4 Noroeste 6 Noroeste 0 -- -- 91
2017-08-05 00:00:00 22.5 3 Noroeste 9 Noroeste 0 -- -- 91
2017-08-04 23:00:00 22.8 5 Noroeste 13 Norte 0 -- -- 90
2017-08-04 22:00:00 24 8 Norte 15 Norte 0 -- -- 85
2017-08-04 21:00:00 24.9 4 Norte 8 Norte 0 -- -- 77
2017-08-04 20:00:00 25.2 3 Nordeste 11 Nordeste 0 -- -- 75
2017-08-04 19:00:00 25.4 7 Nordeste 18 Nordeste 0 -- -- 71
2017-08-04 18:00:00 25.9 10 Nordeste 21 Nordeste 0 -- -- 69
2017-08-04 17:00:00 27 14 Nordeste 24 Nordeste 0 -- -- 65
2017-08-04 16:00:00 28.2 10 Nordeste 20 Nordeste 0 -- -- 62
2017-08-04 15:00:00 28.8 10 Nordeste 19 Nordeste 0 -- -- 61
2017-08-04 14:00:00 28.5 10 Nordeste 19 Nordeste 0 -- -- 63
2017-08-04 13:00:00 28.5 12 Nordeste 18 Nordeste 0 -- -- 66
2017-08-04 12:00:00 28.7 7 Nordeste 13 Sudeste 0 -- -- 64
2017-08-04 11:00:00 25.6 10 Sudeste 17 Sudeste 0 -- -- 74
2017-08-04 10:00:00 22.4 10 Sudeste 18 Sudeste 0 -- -- 84
2017-08-04 09:00:00 19.6 6 Sur 15 Sudeste 0 -- -- 95
2017-08-04 08:00:00 17.5 5 Sur 10 Sur 0 -- -- 98
2017-08-04 07:00:00 16.9 4 Sur 12 Sudeste 0 -- -- 98
2017-08-04 06:00:00 17.2 4 Sur 10 Sudeste 0 -- -- 98
2017-08-04 05:00:00 17.5 6 Sudeste 11 Sur 0 -- -- 97
2017-08-04 04:00:00 17.6 3 Sudeste 8 Sudeste 0 -- -- 96
2017-08-04 03:00:00 18.1 4 Sur 14 Sudeste 0 -- -- 96
2017-08-04 02:00:00 18.3 5 Sur 9 Sur 0 -- -- 94
2017-08-04 01:00:00 19 0 Calma 5 Noroeste 0 -- -- 92
2017-08-04 00:00:00 19.8 3 Noroeste 5 Noroeste 0 -- -- 91
2017-08-03 23:00:00 19.9 0 Calma 6 Noroeste 0 -- -- 87
2017-08-03 22:00:00 21.7 3 Nordeste 10 Norte 0 -- -- 81
2017-08-03 21:00:00 22.4 4 Norte 10 Noroeste 0 -- -- 80
2017-08-03 20:00:00 22.8 6 Norte 15 Norte 0 -- -- 82
2017-08-03 19:00:00 23.1 9 Norte 21 Nordeste 0 -- -- 80
2017-08-03 18:00:00 23.7 12 Norte 21 Norte 0 -- -- 80
2017-08-03 17:00:00 24.2 12 Norte 22 Norte 0 -- -- 77
2017-08-03 16:00:00 25 10 Norte 19 Norte 0 -- -- 71
2017-08-03 15:00:00 25.3 11 Nordeste 18 Nordeste 0 -- -- 72
2017-08-03 14:00:00 25.3 11 Nordeste 17 Nordeste 0 -- -- 72
2017-08-03 13:00:00 25.3 9 Nordeste 18 Norte 0 -- -- 71
2017-08-03 12:00:00 25.4 6 Nordeste 12 Nordeste 0 -- -- 67
2017-08-03 11:00:00 23 7 Sudeste 14 Sudeste 0 -- -- 72
2017-08-03 10:00:00 20.3 6 Sudeste 12 Sudeste 0 -- -- 86
2017-08-03 09:00:00 17.7 7 Sudeste 21 Sudeste 0 -- -- 93
2017-08-03 08:00:00 15.6 9 Sur 18 Sudeste 0 -- -- 98
2017-08-03 07:00:00 15.8 8 Sudeste 17 Sudeste 0 -- -- 98
2017-08-03 06:00:00 16.2 8 Sur 17 Sur 0 -- -- 98
2017-08-03 05:00:00 16.4 8 Sur 14 Sur 0 -- -- 98
2017-08-03 04:00:00 17 6 Sur 10 Sudeste 0 -- -- 98
2017-08-03 03:00:00 17.6 8 Sur 14 Sur 0 -- -- 98
2017-08-03 02:00:00 17.4 5 Sur 11 Sur 0 -- -- 97
2017-08-03 01:00:00 17.8 3 Norte 10 Sudeste 0 -- -- 95
2017-08-03 00:00:00 18.6 5 Sur 9 Sudoeste 0 -- -- 95
2017-08-02 23:00:00 19.4 5 Noroeste 8 Noroeste 0 -- -- 92
2017-08-02 22:00:00 20.9 3 Nordeste 10 Nordeste 0 -- -- 88
2017-08-02 21:00:00 21.9 7 Nordeste 13 Norte 0 -- -- 85
2017-08-02 20:00:00 23.4 3 Oeste 9 Noroeste 0 -- -- 79
2017-08-02 19:00:00 22.8 8 Noroeste 16 Noroeste 0 -- -- 80
2017-08-02 18:00:00 22.8 11 Noroeste 19 Norte 0 -- -- 81
2017-08-02 17:00:00 23.2 8 Nordeste 19 Norte 0 -- -- 81
2017-08-02 16:00:00 23.3 10 Norte 22 Norte 0 -- -- 79
2017-08-02 15:00:00 24 11 Norte 21 Norte 0 -- -- 75
2017-08-02 14:00:00 24.2 10 Nordeste 21 Nordeste 0 -- -- 74
2017-08-02 13:00:00 23.9 10 Nordeste 14 Nordeste 0 -- -- 71
2017-08-02 12:00:00 23.2 7 Nordeste 13 Nordeste 0 -- -- 68
2017-08-02 11:00:00 22.5 5 Norte 10 Sur 0 -- -- 80
2017-08-02 10:00:00 20 8 Sudeste 14 Sudeste 0 -- -- 91
2017-08-02 09:00:00 17.5 5 Sudeste 13 Sudeste 0 -- -- 99
2017-08-02 08:00:00 15.2 5 Sur 9 Sur 0 -- -- 99
2017-08-02 07:00:00 14.7 2 Sudeste 4 Noroeste 0 -- -- 98
2017-08-02 06:00:00 15.4 0 Calma 8 Sur 0 -- -- 98
2017-08-02 05:00:00 15.9 5 Sur 9 Sur 0 -- -- 98
2017-08-02 04:00:00 16.1 3 Sur 5 Sur 0 -- -- 97
2017-08-02 03:00:00 17 3 Sur 7 Sur 0 -- -- 96
2017-08-02 02:00:00 17.7 0 Calma 4 Sur 0 -- -- 94
2017-08-02 01:00:00 18.7 0 Calma 4 Noroeste 0 -- -- 91
2017-08-02 00:00:00 20 3 Noroeste 5 Noroeste 0 -- -- 88
2017-08-01 23:00:00 20.2 2 Sur 9 Nordeste 0 -- -- 87
2017-08-01 22:00:00 20.4 4 Este 13 Nordeste 0 -- -- 85
2017-08-01 21:00:00 21 8 Este 22 Este 0 -- -- 82
2017-08-01 20:00:00 21.2 14 Nordeste 27 Nordeste 0 -- -- 81
2017-08-01 19:00:00 21.3 20 Nordeste 32 Nordeste 0 -- -- 82
2017-08-01 18:00:00 22.1 22 Nordeste 31 Nordeste 0 -- -- 82
2017-08-01 17:00:00 22.3 18 Nordeste 26 Nordeste 0 -- -- 83
2017-08-01 16:00:00 22.3 11 Nordeste 19 Nordeste 0 -- -- 80
2017-08-01 15:00:00 22 8 Nordeste 14 Nordeste 0 -- -- 82
2017-08-01 14:00:00 21.7 6 Nordeste 14 Nordeste 0 -- -- 83
2017-08-01 13:00:00 21 5 Nordeste 8 Norte 0 -- -- 87
2017-08-01 12:00:00 19.4 3 Este 7 Sudeste 0 -- -- 93
2017-08-01 11:00:00 18.4 4 Sudeste 10 Sudeste 0 -- -- 98
2017-08-01 10:00:00 18 6 Sur 11 Sudeste 0.2 -- -- 99
2017-08-01 09:00:00 17.6 3 Sur 7 Sudeste 0.6 -- -- 99
2017-08-01 08:00:00 17.4 4 Sur 12 Sudeste 0.2 -- -- 98
2017-08-01 07:00:00 17.5 5 Sur 10 Sur 0 -- -- 98
2017-08-01 06:00:00 17.5 4 Sur 12 Noroeste 0 -- -- 99
2017-08-01 05:00:00 17.5 3 Sur 9 Noroeste 0 -- -- 98
2017-08-01 04:00:00 17.5 0 Calma 9 Sudoeste 0 -- -- 98
2017-08-01 03:00:00 17.6 3 Sudoeste 8 Sur 0 -- -- 98
2017-08-01 02:00:00 17.6 4 Sur 7 Sur 0 -- -- 98
2017-08-01 01:00:00 17.7 2 Este 5 Sudeste 0 -- -- 98
2017-08-01 00:00:00 17.7 4 Sur 9 Sudeste 0 -- -- 98
2017-07-31 23:00:00 17.7 4 Sudeste 11 Sudoeste 0 -- -- 97
2017-07-31 22:00:00 17.9 6 Sur 12 Sudoeste 0.4 -- -- 97
2017-07-31 21:00:00 18.2 4 Sudoeste 9 Oeste 0 -- -- 95
2017-07-31 20:00:00 18.4 6 Oeste 9 Oeste 0.2 -- -- 96
2017-07-31 19:00:00 19 6 Sur 9 Sur 0 -- -- 92
2017-07-31 18:00:00 19.6 3 Noroeste 15 Este 0 -- -- 88
2017-07-31 17:00:00 19.1 14 Nordeste 24 Nordeste 0 -- -- 91
2017-07-31 16:00:00 19.8 6 Nordeste 11 Norte 0 -- -- 91
2017-07-31 15:00:00 19.7 6 Norte 10 Nordeste 0 -- -- 92
2017-07-31 14:00:00 19.4 6 Nordeste 11 Nordeste 0 -- -- 93
2017-07-31 13:00:00 18.6 3 Sudeste 7 Sudeste 0.2 -- -- 99
2017-07-31 12:00:00 17.7 5 Sudeste 14 Sudeste 0 -- -- 98
2017-07-31 11:00:00 16.9 10 Sudeste 15 Sudeste 0.2 -- -- 98
2017-07-31 10:00:00 16.8 8 Sudeste 15 Sudeste 0 -- -- 97
2017-07-31 09:00:00 16.5 7 Sur 16 Sudeste 0 -- -- 97
2017-07-31 08:00:00 16.3 8 Sudeste 17 Sudeste 0.4 -- -- 94
2017-07-31 07:00:00 16.3 5 Sur 10 Sudeste 0 -- -- 96
2017-07-31 06:00:00 16.3 5 Sur 12 Sudeste 0 -- -- 96
2017-07-31 05:00:00 16.3 5 Sur 11 Sudeste 0 -- -- 96
2017-07-31 04:00:00 17 5 Sur 14 Sudeste 0 -- -- 94
2017-07-31 03:00:00 17.6 5 Sur 9 Sur 0 -- -- 95
2017-07-31 02:00:00 18 6 Sur 9 Sur 0 -- -- 94
2017-07-31 01:00:00 18.2 3 Sur 15 Sudeste 0 -- -- 92
2017-07-31 00:00:00 18.2 7 Sur 14 Sudeste 0 -- -- 91
2017-07-30 23:00:00 18.4 7 Sur 14 Sur 0 -- -- 90
2017-07-30 22:00:00 18.6 6 Sudeste 11 Sudeste 0 -- -- 89
2017-07-30 21:00:00 18.9 5 Sur 11 Sudeste 0 -- -- 88
2017-07-30 20:00:00 19 6 Sur 16 Sur 0 -- -- 86
2017-07-30 19:00:00 19.3 6 Sur 13 Oeste 0 -- -- 89
2017-07-30 18:00:00 19.4 6 Noroeste 13 Noroeste 0 -- -- 89
2017-07-30 17:00:00 20 3 Sudoeste 14 Oeste 0 -- -- 86
2017-07-30 16:00:00 20.2 6 Sudoeste 12 Sur 0 -- -- 91
2017-07-30 15:00:00 19.9 4 Sur 7 Sur 0 -- -- 91
2017-07-30 14:00:00 19.2 5 Nordeste 13 Noroeste 0 -- -- 94
2017-07-30 13:00:00 20 7 Norte 17 Norte 0 -- -- 92
2017-07-30 12:00:00 20.2 6 Norte 15 Norte 0 -- -- 93
2017-07-30 11:00:00 20.4 3 Norte 10 Norte 0 -- -- 95
2017-07-30 10:00:00 20.5 5 Noroeste 7 Noroeste 0 -- -- 96
2017-07-30 09:00:00 19.7 0 Calma 10 Sudeste 0.8 -- -- 96
2017-07-30 08:00:00 19.4 3 Sudeste 7 Sudeste 0 -- -- 94
2017-07-30 07:00:00 19.1 5 Sur 10 Sudeste 0 -- -- 93
2017-07-30 06:00:00 19 3 Sur 10 Sudeste 0 -- -- 93
2017-07-30 05:00:00 18.8 5 Sur 8 Sur 0 -- -- 92
2017-07-30 04:00:00 18.5 3 Sur 9 Sur 0 -- -- 93
2017-07-30 03:00:00 18 4 Sudeste 13 Noroeste 0 -- -- 91
2017-07-30 02:00:00 18.9 3 Sur 11 Sur 0 -- -- 89
2017-07-30 01:00:00 19.2 2 Sur 6 Noroeste 0 -- -- 86
2017-07-30 00:00:00 20.5 4 Oeste 9 Sudeste 0 -- -- 81
2017-07-29 23:00:00 21.8 0 Calma 6 Sudeste 0 -- -- 77
2017-07-29 22:00:00 22.9 0 Calma 9 Noroeste 0 -- -- 71
2017-07-29 21:00:00 25.1 4 Sudoeste 15 Norte 0 -- -- 60
2017-07-29 20:00:00 26.5 10 Nordeste 22 Nordeste 0 -- -- 54
2017-07-29 19:00:00 25.4 9 Norte 24 Nordeste 0 -- -- 58
2017-07-29 18:00:00 25.9 12 Nordeste 26 Nordeste 0 -- -- 57
2017-07-29 17:00:00 26.1 14 Nordeste 23 Nordeste 0 -- -- 61
2017-07-29 16:00:00 26.2 15 Nordeste 23 Nordeste 0 -- -- 58
2017-07-29 15:00:00 26.2 11 Nordeste 19 Nordeste 0 -- -- 61
2017-07-29 14:00:00 26 8 Nordeste 13 Nordeste 0 -- -- 64
2017-07-29 13:00:00 25.3 10 Nordeste 15 Nordeste 0 -- -- 63
2017-07-29 12:00:00 25.4 7 Nordeste 15 Sur 0 -- -- 58
2017-07-29 11:00:00 23.6 4 Sudeste 19 Sudeste 0 -- -- 63
2017-07-29 10:00:00 20.8 9 Sudeste 21 Sudeste 0 -- -- 72
2017-07-29 09:00:00 18.4 10 Sudeste 24 Sudeste 0 -- -- 81
2017-07-29 08:00:00 16 8 Sur 17 Sur 0 -- -- 93
2017-07-29 07:00:00 15.8 8 Sur 17 Sur 0 -- -- 95
2017-07-29 06:00:00 16.3 8 Sur 15 Sur 0 -- -- 94
2017-07-29 05:00:00 16.7 9 Sur 16 Sudeste 0 -- -- 95
2017-07-29 04:00:00 16.7 8 Sur 17 Sur 0 -- -- 95
2017-07-29 03:00:00 17 8 Sur 14 Sur 0 -- -- 97
2017-07-29 02:00:00 16.9 5 Sur 9 Sur 0 -- -- 96
2017-07-29 01:00:00 17.5 5 Sur 9 Sur 0 -- -- 95
2017-07-29 00:00:00 18.3 6 Sudeste 12 Sur 0 -- -- 95
2017-07-28 23:00:00 19 3 Sudeste 5 Sudeste 0 -- -- 90
2017-07-28 22:00:00 20.6 3 Oeste 13 Nordeste 0 -- -- 85
2017-07-28 21:00:00 21.8 8 Nordeste 17 Nordeste 0 -- -- 82
2017-07-28 20:00:00 22 11 Nordeste 19 Nordeste 0 -- -- 81
2017-07-28 19:00:00 22.8 12 Nordeste 21 Nordeste 0 -- -- 77
2017-07-28 18:00:00 22.9 13 Nordeste 22 Nordeste 0 -- -- 76
2017-07-28 17:00:00 22.7 13 Nordeste 23 Nordeste 0 -- -- 79
2017-07-28 16:00:00 22 15 Nordeste 22 Nordeste 0 -- -- 82
2017-07-28 15:00:00 22.2 14 Nordeste 20 Nordeste 0 -- -- 82
2017-07-28 14:00:00 21.9 12 Nordeste 18 Nordeste 0 -- -- 85
2017-07-28 13:00:00 21.3 6 Nordeste 13 Nordeste 0 -- -- 87
2017-07-28 12:00:00 20.9 8 Nordeste 13 Nordeste 0 -- -- 87
2017-07-28 11:00:00 20.5 3 Este 6 Sudeste 0 -- -- 90
2017-07-28 10:00:00 20.1 3 Sur 9 Sudeste 0 -- -- 94
2017-07-28 09:00:00 19.3 2 Oeste 6 Noroeste 0 -- -- 96
2017-07-28 08:00:00 18.9 2 Oeste 4 Noroeste 0 -- -- 97
2017-07-28 07:00:00 18.8 0 Calma 5 Sur 0 -- -- 97
2017-07-28 06:00:00 18.6 4 Sur 7 Sur 0 -- -- 97
2017-07-28 05:00:00 18.7 4 Sur 7 Sur 0 -- -- 97
2017-07-28 04:00:00 18.8 2 Sur 5 Oeste 0 -- -- 97
2017-07-28 03:00:00 18.7 0 Calma 8 Noroeste 0.2 -- -- 97
2017-07-28 02:00:00 19 3 Noroeste 4 Oeste 0 -- -- 96
2017-07-28 01:00:00 19.1 3 Noroeste 14 Noroeste 0 -- -- 94
2017-07-28 00:00:00 19.9 7 Noroeste 15 Noroeste 0 -- -- 90
2017-07-27 23:00:00 21.1 8 Noroeste 15 Noroeste 0 -- -- 87
2017-07-27 22:00:00 21.7 7 Noroeste 15 Noroeste 0 -- -- 85
2017-07-27 21:00:00 22.3 6 Noroeste 19 Noroeste 0 -- -- 84
2017-07-27 20:00:00 22.7 11 Noroeste 20 Noroeste 0 -- -- 81
2017-07-27 19:00:00 23.8 13 Noroeste 23 Noroeste 0 -- -- 78
2017-07-27 18:00:00 25.2 13 Noroeste 26 Noroeste 0 -- -- 72
2017-07-27 17:00:00 25.9 13 Norte 26 Noroeste 0 -- -- 70
2017-07-27 16:00:00 26 14 Norte 25 Norte 0 -- -- 70
2017-07-27 15:00:00 25.1 11 Nordeste 20 Nordeste 0 -- -- 72
2017-07-27 14:00:00 24.6 10 Nordeste 16 Nordeste 0 -- -- 73
2017-07-27 13:00:00 23.3 8 Nordeste 18 Nordeste 0 -- -- 78
2017-07-27 12:00:00 23.8 7 Nordeste 11 Nordeste 0 -- -- 71
2017-07-27 11:00:00 21.5 3 Sudeste 14 Sur 0 -- -- 78
2017-07-27 10:00:00 18.7 11 Sudeste 19 Sudeste 0 -- -- 90
2017-07-27 09:00:00 17.5 8 Sudeste 14 Sudeste 0 -- -- 96
2017-07-27 08:00:00 17.3 5 Sur 11 Sudeste 0 -- -- 96
2017-07-27 07:00:00 17.3 5 Sudeste 9 Sudeste 0 -- -- 95
2017-07-27 06:00:00 17.4 3 Sudeste 10 Sudeste 0 -- -- 96
2017-07-27 05:00:00 17.5 4 Sur 8 Sudeste 0 -- -- 96
2017-07-27 04:00:00 17.4 0 Calma 6 Sudeste 0 -- -- 96
2017-07-27 03:00:00 17.2 4 Sudeste 10 Sudeste 0 -- -- 96
2017-07-27 02:00:00 17.2 5 Sudeste 11 Sudeste 0 -- -- 96
2017-07-27 01:00:00 17.2 2 Sudeste 5 Sudeste 0 -- -- 94
2017-07-27 00:00:00 17.5 3 Sur 5 Sudeste 0 -- -- 93
2017-07-26 23:00:00 19.1 3 Noroeste 5 Noroeste 0 -- -- 87
2017-07-26 22:00:00 20 3 Noroeste 8 Nordeste 0 -- -- 84
2017-07-26 21:00:00 20.3 5 Nordeste 10 Este 0 -- -- 81
2017-07-26 20:00:00 21.2 6 Norte 13 Nordeste 0 -- -- 78
2017-07-26 19:00:00 21.7 6 Norte 19 Norte 0 -- -- 78
2017-07-26 18:00:00 22.5 10 Norte 17 Norte 0 -- -- 76
2017-07-26 17:00:00 22.4 10 Nordeste 21 Norte 0 -- -- 75
2017-07-26 16:00:00 22.8 10 Nordeste 22 Nordeste 0 -- -- 73
2017-07-26 15:00:00 23 10 Norte 21 Norte 0 -- -- 74
2017-07-26 14:00:00 22.5 9 Nordeste 16 Nordeste 0 -- -- 73
2017-07-26 13:00:00 22.3 7 Nordeste 16 Nordeste 0 -- -- 73
2017-07-26 12:00:00 21.7 8 Nordeste 13 Nordeste 0 -- -- 69
2017-07-26 11:00:00 19.9 0 Calma 13 Sudeste 0 -- -- 76
2017-07-26 10:00:00 17.8 10 Sudeste 21 Sudeste 0 -- -- 86
2017-07-26 09:00:00 16 10 Sudeste 16 Sudeste 0 -- -- 94
2017-07-26 08:00:00 13.9 7 Sur 12 Sudeste 0 -- -- 97
2017-07-26 07:00:00 13.8 4 Sur 14 Sudeste 0 -- -- 97
2017-07-26 06:00:00 14.1 7 Sur 16 Sur 0 -- -- 96
2017-07-26 05:00:00 14.3 6 Sur 15 Sudeste 0 -- -- 97
2017-07-26 04:00:00 14.8 5 Sur 12 Sur 0 -- -- 96
2017-07-26 03:00:00 15.3 8 Sudeste 18 Sudeste 0 -- -- 96
2017-07-26 02:00:00 15.7 5 Sur 9 Sudeste 0 -- -- 95
2017-07-26 01:00:00 16 5 Sur 9 Sudeste 0 -- -- 94
2017-07-26 00:00:00 16.5 4 Sudeste 6 Sudeste 0 -- -- 89
2017-07-25 23:00:00 17.7 3 Sudoeste 6 Sudoeste 0 -- -- 85
2017-07-25 22:00:00 18.3 4 Sudoeste 9 Noroeste 0 -- -- 81
2017-07-25 21:00:00 19.7 6 Noroeste 17 Noroeste 0 -- -- 75
2017-07-25 20:00:00 20.7 9 Noroeste 17 Norte 0 -- -- 71
2017-07-25 19:00:00 20.9 9 Noroeste 22 Norte 0 -- -- 71
2017-07-25 18:00:00 21.6 9 Noroeste 21 Noroeste 0 -- -- 71
2017-07-25 17:00:00 21.6 14 Noroeste 25 Noroeste 0 -- -- 72
2017-07-25 16:00:00 22.1 13 Noroeste 25 Noroeste 0 -- -- 68
2017-07-25 15:00:00 21.2 15 Noroeste 32 Noroeste 0 -- -- 70
2017-07-25 14:00:00 20 12 Noroeste 22 Noroeste 0 -- -- 77
2017-07-25 13:00:00 19.1 8 Oeste 18 Oeste 0 -- -- 83
2017-07-25 12:00:00 19.6 9 Sudoeste 18 Oeste 0 -- -- 83
2017-07-25 11:00:00 18.5 5 Oeste 17 Sudoeste 0 -- -- 87
2017-07-25 10:00:00 18.6 7 Oeste 15 Sudoeste 0 -- -- 86
2017-07-25 09:00:00 17.6 5 Sudeste 13 Sudeste 0 -- -- 93
2017-07-25 08:00:00 16.1 5 Sur 11 Sudeste 0 -- -- 96
2017-07-25 07:00:00 15.8 4 Sur 10 Sudoeste 0 -- -- 93
2017-07-25 06:00:00 16.2 4 Sudoeste 10 Sudoeste 0 -- -- 91
2017-07-25 05:00:00 16.7 6 Sudoeste 12 Sudoeste 0 -- -- 92
2017-07-25 04:00:00 16.7 4 Sudoeste 9 Sudoeste 0 -- -- 94
2017-07-25 03:00:00 17 4 Oeste 12 Oeste 0 -- -- 93
2017-07-25 02:00:00 17.2 5 Sudoeste 10 Oeste 0 -- -- 94
2017-07-25 01:00:00 17.2 4 Sudoeste 9 Oeste 0 -- -- 95
2017-07-25 00:00:00 17.2 4 Sudoeste 12 Oeste 0.2 -- -- 95
2017-07-24 23:00:00 17.4 3 Sur 9 Oeste 0.2 -- -- 94
2017-07-24 22:00:00 17.5 4 Sudoeste 18 Sudoeste 0 -- -- 94
2017-07-24 21:00:00 17.5 7 Oeste 28 Noroeste 0.2 -- -- 94
2017-07-24 20:00:00 18.4 7 Noroeste 22 Noroeste 0.2 -- -- 92
2017-07-24 19:00:00 19.5 9 Norte 28 Oeste 0.2 -- -- 87
2017-07-24 18:00:00 19.9 12 Oeste 33 Noroeste 0 -- -- 88
2017-07-24 17:00:00 20.6 18 Noroeste 34 Noroeste 0 -- -- 80
2017-07-24 16:00:00 20.2 14 Noroeste 38 Noroeste 0 -- -- 88
2017-07-24 15:00:00 20.5 12 Noroeste 36 Noroeste 0 -- -- 87
2017-07-24 14:00:00 21 17 Noroeste 41 Noroeste 0.2 -- -- 81
2017-07-24 13:00:00 20.6 14 Noroeste 32 Noroeste 0.2 -- -- 85
2017-07-24 12:00:00 19.7 16 Oeste 29 Oeste 0.4 -- -- 89
2017-07-24 11:00:00 19.1 12 Oeste 25 Noroeste 0.6 -- -- 93
2017-07-24 10:00:00 18.8 8 Oeste 17 Oeste 0.2 -- -- 94
2017-07-24 09:00:00 18.3 7 Oeste 18 Oeste 0.6 -- -- 95
2017-07-24 08:00:00 17.8 8 Oeste 32 Noroeste 0.2 -- -- 94
2017-07-24 07:00:00 18.1 8 Oeste 28 Noroeste 1.6 -- -- 95
2017-07-24 06:00:00 18.8 8 Oeste 24 Oeste 0 -- -- 93
2017-07-24 05:00:00 19.1 11 Noroeste 33 Oeste 2 -- -- 94
2017-07-24 04:00:00 19.5 9 Oeste 26 Oeste 0.2 -- -- 94
2017-07-24 03:00:00 19.5 8 Oeste 18 Oeste 1.2 -- -- 94
2017-07-24 02:00:00 19.6 6 Oeste 24 Noroeste 0.4 -- -- 93
2017-07-24 01:00:00 19.7 10 Oeste 23 Oeste 0.8 -- -- 93
2017-07-24 00:00:00 20.2 6 Oeste 23 Oeste 0 -- -- 86
2017-07-23 23:00:00 20.9 8 Oeste 20 Oeste 0 -- -- 78
2017-07-23 22:00:00 21.2 5 Noroeste 14 Noroeste 0 -- -- 75
2017-07-23 21:00:00 21.7 4 Oeste 19 Noroeste 0 -- -- 70
2017-07-23 20:00:00 23 15 Noroeste 24 Noroeste 0 -- -- 64
2017-07-23 19:00:00 23.4 6 Oeste 17 Norte 0 -- -- 65
2017-07-23 18:00:00 23.1 11 Oeste 25 Noroeste 0 -- -- 64
2017-07-23 17:00:00 22.9 13 Norte 25 Nordeste 0 -- -- 66
2017-07-23 16:00:00 22.5 12 Norte 24 Norte 0 -- -- 70
2017-07-23 15:00:00 23.2 10 Nordeste 19 Nordeste 0 -- -- 69
2017-07-23 14:00:00 22.3 7 Oeste 19 Noroeste 0 -- -- 69
2017-07-23 13:00:00 21.3 10 Noroeste 17 Norte 0 -- -- 72
2017-07-23 12:00:00 21.2 9 Oeste 19 Noroeste 0 -- -- 68
2017-07-23 11:00:00 20.6 5 Noroeste 12 Sudeste 0 -- -- 72
2017-07-23 10:00:00 17.5 7 Sudeste 14 Sudeste 0 -- -- 90
2017-07-23 09:00:00 16.1 8 Sur 17 Sudeste 0 -- -- 93
2017-07-23 08:00:00 15.5 6 Sur 19 Sudeste 0 -- -- 95
2017-07-23 07:00:00 15.6 5 Sur 12 Sudeste 0 -- -- 94
2017-07-23 06:00:00 16.2 6 Sur 13 Sudeste 0 -- -- 93
2017-07-23 05:00:00 16.6 9 Sudeste 15 Sudeste 0 -- -- 92
2017-07-23 04:00:00 16.8 6 Sur 13 Sur 0 -- -- 91
2017-07-23 03:00:00 17 6 Sur 13 Sudeste 0 -- -- 89
2017-07-23 02:00:00 17.3 5 Sudeste 13 Sur 0 -- -- 87
2017-07-23 01:00:00 17.4 9 Sur 14 Sur 0 -- -- 86
2017-07-23 00:00:00 17.7 5 Sur 17 Sudoeste 0 -- -- 85
2017-07-22 23:00:00 17.6 6 Sur 15 Sudoeste 0 -- -- 87
2017-07-22 22:00:00 17.7 6 Sur 14 Sudoeste 0 -- -- 87
2017-07-22 21:00:00 18.6 5 Oeste 14 Sudoeste 0 -- -- 83
2017-07-22 20:00:00 18.8 6 Sudoeste 15 Sudoeste 0 -- -- 84
2017-07-22 19:00:00 19 6 Sudoeste 18 Oeste 0 -- -- 84
2017-07-22 18:00:00 19.3 6 Oeste 26 Oeste 0 -- -- 82
2017-07-22 17:00:00 19.6 10 Oeste 18 Oeste 0 -- -- 82
2017-07-22 16:00:00 19.9 10 Noroeste 22 Noroeste 0 -- -- 83
2017-07-22 15:00:00 20.8 10 Noroeste 20 Noroeste 0 -- -- 79
2017-07-22 14:00:00 20.8 10 Noroeste 20 Noroeste 0 -- -- 81
2017-07-22 13:00:00 22.7 14 Noroeste 23 Noroeste 0 -- -- 72
2017-07-22 12:00:00 23 8 Noroeste 16 Noroeste 0 -- -- 67
2017-07-22 11:00:00 20.8 7 Sudeste 19 Sudeste 0 -- -- 79
2017-07-22 10:00:00 17.8 14 Sudeste 22 Sudeste 0 -- -- 88
2017-07-22 09:00:00 16.1 7 Sur 15 Sudeste 0 -- -- 96
2017-07-22 08:00:00 14.6 8 Sur 18 Sur 0 -- -- 97
2017-07-22 07:00:00 14.4 9 Sur 21 Sudeste 0 -- -- 98
2017-07-22 06:00:00 14.3 7 Sur 18 Sudeste 0 -- -- 98
2017-07-22 05:00:00 14.3 8 Sur 21 Sur 0 -- -- 98
2017-07-22 04:00:00 14.3 6 Sur 12 Sudeste 0 -- -- 98
2017-07-22 03:00:00 14.5 6 Sur 13 Sur 0 -- -- 97
2017-07-22 02:00:00 15.2 5 Sur 13 Sur 0 -- -- 97
2017-07-22 01:00:00 15 5 Sur 12 Sur 0 -- -- 97
2017-07-22 00:00:00 15.4 5 Sur 9 Sudeste 0 -- -- 94